sensor_id;sensor_type;location;lat;lon;timestamp;temperature;humidity
55008;DHT22;40902;45.116;21.296;2023-09-19T00:00:34;614.70;2406.40
55008;DHT22;40902;45.116;21.296;2023-09-19T00:03:01;614.60;2406.40
55008;DHT22;40902;45.116;21.296;2023-09-19T00:05:28;614.70;2406.40
55008;DHT22;40902;45.116;21.296;2023-09-19T00:07:55;614.70;2406.40
55008;DHT22;40902;45.116;21.296;2023-09-19T00:10:24;614.60;2406.40
55008;DHT22;40902;45.116;21.296;2023-09-19T00:12:53;614.70;2406.40
55008;DHT22;40902;45.116;21.296;2023-09-19T00:15:22;614.70;2406.40
55008;DHT22;40902;45.116;21.296;2023-09-19T00:17:48;614.60;2406.40
55008;DHT22;40902;45.116;21.296;2023-09-19T00:20:14;614.70;2406.40
55008;DHT22;40902;45.116;21.296;2023-09-19T00:22:43;614.60;2406.40
55008;DHT22;40902;45.116;21.296;2023-09-19T00:25:09;614.60;2406.40
55008;DHT22;40902;45.116;21.296;2023-09-19T00:27:38;614.60;2406.40
55008;DHT22;40902;45.116;21.296;2023-09-19T00:30:11;614.60;2406.40
55008;DHT22;40902;45.116;21.296;2023-09-19T00:32:55;614.60;2406.40
55008;DHT22;40902;45.116;21.296;2023-09-19T00:35:21;614.60;2406.40
55008;DHT22;40902;45.116;21.296;2023-09-19T00:37:51;614.60;2406.40
55008;DHT22;40902;45.116;21.296;2023-09-19T00:40:16;614.60;2406.40
55008;DHT22;40902;45.116;21.296;2023-09-19T00:42:44;614.60;2406.40
55008;DHT22;40902;45.116;21.296;2023-09-19T00:45:11;614.60;2406.40
55008;DHT22;40902;45.116;21.296;2023-09-19T00:47:41;614.60;2406.40
55008;DHT22;40902;45.116;21.296;2023-09-19T00:50:08;614.60;2406.40
55008;DHT22;40902;45.116;21.296;2023-09-19T00:52:36;614.60;2406.40
55008;DHT22;40902;45.116;21.296;2023-09-19T00:55:08;614.60;2406.40
55008;DHT22;40902;45.116;21.296;2023-09-19T00:57:35;614.60;2406.40
55008;DHT22;40902;45.116;21.296;2023-09-19T01:00:02;614.60;2406.40
55008;DHT22;40902;45.116;21.296;2023-09-19T01:02:34;614.60;2406.40
55008;DHT22;40902;45.116;21.296;2023-09-19T01:05:00;614.60;2406.40
55008;DHT22;40902;45.116;21.296;2023-09-19T01:07:30;614.60;2406.40
55008;DHT22;40902;45.116;21.296;2023-09-19T01:10:00;614.60;2406.40
55008;DHT22;40902;45.116;21.296;2023-09-19T01:12:39;614.60;2406.40
55008;DHT22;40902;45.116;21.296;2023-09-19T01:18:21;614.60;2406.40
55008;DHT22;40902;45.116;21.296;2023-09-19T01:28:54;614.60;2406.40
55008;DHT22;40902;45.116;21.296;2023-09-19T01:31:29;614.60;2406.40
55008;DHT22;40902;45.116;21.296;2023-09-19T01:33:59;614.60;2406.40
55008;DHT22;40902;45.116;21.296;2023-09-19T01:36:27;614.60;2406.40
55008;DHT22;40902;45.116;21.296;2023-09-19T01:38:53;614.50;2406.40
55008;DHT22;40902;45.116;21.296;2023-09-19T01:41:29;614.60;2406.40
55008;DHT22;40902;45.116;21.296;2023-09-19T01:43:56;614.60;2406.40
55008;DHT22;40902;45.116;21.296;2023-09-19T01:46:33;614.60;2406.40
55008;DHT22;40902;45.116;21.296;2023-09-19T01:52:14;614.60;2406.40
55008;DHT22;40902;45.116;21.296;2023-09-19T01:54:48;614.50;2406.40
55008;DHT22;40902;45.116;21.296;2023-09-19T01:57:40;614.50;2406.40
55008;DHT22;40902;45.116;21.296;2023-09-19T02:00:11;614.50;2406.40
55008;DHT22;40902;45.116;21.296;2023-09-19T02:02:46;614.50;2406.40
55008;DHT22;40902;45.116;21.296;2023-09-19T02:05:13;614.50;2406.40
55008;DHT22;40902;45.116;21.296;2023-09-19T02:07:48;614.50;2406.40
55008;DHT22;40902;45.116;21.296;2023-09-19T02:10:14;614.50;2406.40
55008;DHT22;40902;45.116;21.296;2023-09-19T02:12:40;614.50;2406.40
55008;DHT22;40902;45.116;21.296;2023-09-19T02:15:06;614.50;2406.40
55008;DHT22;40902;45.116;21.296;2023-09-19T02:17:32;614.50;2380.80
55008;DHT22;40902;45.116;21.296;2023-09-19T02:19:58;614.50;2380.80
55008;DHT22;40902;45.116;21.296;2023-09-19T02:22:26;614.50;2380.80
55008;DHT22;40902;45.116;21.296;2023-09-19T02:24:52;614.50;2380.80
55008;DHT22;40902;45.116;21.296;2023-09-19T02:27:19;614.50;2380.80
55008;DHT22;40902;45.116;21.296;2023-09-19T02:29:45;614.50;2380.80
55008;DHT22;40902;45.116;21.296;2023-09-19T02:32:10;614.50;2380.80
55008;DHT22;40902;45.116;21.296;2023-09-19T02:34:36;614.50;2380.80
55008;DHT22;40902;45.116;21.296;2023-09-19T02:37:04;614.50;2380.80
55008;DHT22;40902;45.116;21.296;2023-09-19T02:39:31;614.50;2380.80
55008;DHT22;40902;45.116;21.296;2023-09-19T02:41:57;614.50;2380.80
55008;DHT22;40902;45.116;21.296;2023-09-19T02:44:23;614.50;2380.80
55008;DHT22;40902;45.116;21.296;2023-09-19T02:46:50;614.50;2380.80
55008;DHT22;40902;45.116;21.296;2023-09-19T02:49:16;614.50;2380.80
55008;DHT22;40902;45.116;21.296;2023-09-19T02:51:46;614.50;2380.80
55008;DHT22;40902;45.116;21.296;2023-09-19T02:54:13;614.50;2380.80
55008;DHT22;40902;45.116;21.296;2023-09-19T02:56:39;614.50;2380.80
55008;DHT22;40902;45.116;21.296;2023-09-19T02:59:04;614.50;2380.80
55008;DHT22;40902;45.116;21.296;2023-09-19T03:01:31;614.50;2380.80
55008;DHT22;40902;45.116;21.296;2023-09-19T03:03:58;614.60;2380.80
55008;DHT22;40902;45.116;21.296;2023-09-19T03:06:24;614.50;2380.80
55008;DHT22;40902;45.116;21.296;2023-09-19T03:08:50;614.50;2380.80
55008;DHT22;40902;45.116;21.296;2023-09-19T03:11:17;614.50;2355.20
55008;DHT22;40902;45.116;21.296;2023-09-19T03:13:51;614.50;2355.20
55008;DHT22;40902;45.116;21.296;2023-09-19T03:16:17;614.50;2380.80
55008;DHT22;40902;45.116;21.296;2023-09-19T03:18:44;614.50;2380.80
55008;DHT22;40902;45.116;21.296;2023-09-19T03:21:10;614.50;2380.80
55008;DHT22;40902;45.116;21.296;2023-09-19T03:23:36;614.50;2380.80
55008;DHT22;40902;45.116;21.296;2023-09-19T03:26:04;614.50;2355.20
55008;DHT22;40902;45.116;21.296;2023-09-19T03:28:33;614.50;2380.80
55008;DHT22;40902;45.116;21.296;2023-09-19T03:31:03;614.50;2380.80
55008;DHT22;40902;45.116;21.296;2023-09-19T03:33:28;614.50;2380.80
55008;DHT22;40902;45.116;21.296;2023-09-19T03:35:57;614.50;2380.80
55008;DHT22;40902;45.116;21.296;2023-09-19T03:38:27;614.50;2380.80
55008;DHT22;40902;45.116;21.296;2023-09-19T03:40:54;614.50;2380.80
55008;DHT22;40902;45.116;21.296;2023-09-19T03:43:20;614.50;2380.80
55008;DHT22;40902;45.116;21.296;2023-09-19T03:45:46;614.50;2355.20
55008;DHT22;40902;45.116;21.296;2023-09-19T03:48:16;614.40;2355.20
55008;DHT22;40902;45.116;21.296;2023-09-19T03:50:42;614.50;2380.80
55008;DHT22;40902;45.116;21.296;2023-09-19T03:53:09;614.50;2380.80
55008;DHT22;40902;45.116;21.296;2023-09-19T03:55:35;614.40;2380.80
55008;DHT22;40902;45.116;21.296;2023-09-19T03:58:02;614.40;2355.20
55008;DHT22;40902;45.116;21.296;2023-09-19T04:00:27;614.50;2380.80
55008;DHT22;40902;45.116;21.296;2023-09-19T04:02:55;614.40;2380.80
55008;DHT22;40902;45.116;21.296;2023-09-19T04:05:22;614.40;2355.20
55008;DHT22;40902;45.116;21.296;2023-09-19T04:07:48;614.40;2355.20
55008;DHT22;40902;45.116;21.296;2023-09-19T04:10:14;614.40;2355.20
55008;DHT22;40902;45.116;21.296;2023-09-19T04:12:40;614.40;2380.80
55008;DHT22;40902;45.116;21.296;2023-09-19T04:15:06;614.50;2432.00
55008;DHT22;40902;45.116;21.296;2023-09-19T04:17:33;614.50;2355.20
55008;DHT22;40902;45.116;21.296;2023-09-19T04:19:59;614.40;2355.20
55008;DHT22;40902;45.116;21.296;2023-09-19T04:22:25;614.40;2355.20
55008;DHT22;40902;45.116;21.296;2023-09-19T04:24:51;614.40;2355.20
55008;DHT22;40902;45.116;21.296;2023-09-19T04:27:17;614.40;2355.20
55008;DHT22;40902;45.116;21.296;2023-09-19T04:29:44;614.40;2355.20
55008;DHT22;40902;45.116;21.296;2023-09-19T04:32:10;614.40;2355.20
55008;DHT22;40902;45.116;21.296;2023-09-19T04:34:37;614.40;2355.20
55008;DHT22;40902;45.116;21.296;2023-09-19T04:37:06;614.40;2355.20
55008;DHT22;40902;45.116;21.296;2023-09-19T04:39:31;614.40;2355.20
55008;DHT22;40902;45.116;21.296;2023-09-19T04:41:57;614.40;2380.80
55008;DHT22;40902;45.116;21.296;2023-09-19T04:44:24;589.70;2380.80
55008;DHT22;40902;45.116;21.296;2023-09-19T04:46:49;589.70;2380.80
55008;DHT22;40902;45.116;21.296;2023-09-19T04:49:16;589.70;2355.20
55008;DHT22;40902;45.116;21.296;2023-09-19T04:51:42;589.70;2380.80
55008;DHT22;40902;45.116;21.296;2023-09-19T04:54:07;589.70;2380.80
55008;DHT22;40902;45.116;21.296;2023-09-19T04:56:33;589.70;2380.80
55008;DHT22;40902;45.116;21.296;2023-09-19T04:58:59;589.70;2380.80
55008;DHT22;40902;45.116;21.296;2023-09-19T05:01:25;589.70;2380.80
55008;DHT22;40902;45.116;21.296;2023-09-19T05:03:51;589.70;2380.80
55008;DHT22;40902;45.116;21.296;2023-09-19T05:06:20;589.70;2380.80
55008;DHT22;40902;45.116;21.296;2023-09-19T05:08:49;589.70;2380.80
55008;DHT22;40902;45.116;21.296;2023-09-19T05:11:20;589.70;2380.80
55008;DHT22;40902;45.116;21.296;2023-09-19T05:13:48;589.70;2380.80
55008;DHT22;40902;45.116;21.296;2023-09-19T05:16:16;589.70;2380.80
55008;DHT22;40902;45.116;21.296;2023-09-19T05:18:42;589.70;2380.80
55008;DHT22;40902;45.116;21.296;2023-09-19T05:21:08;589.70;2380.80
55008;DHT22;40902;45.116;21.296;2023-09-19T05:23:34;589.70;2380.80
55008;DHT22;40902;45.116;21.296;2023-09-19T05:25:59;589.70;2380.80
55008;DHT22;40902;45.116;21.296;2023-09-19T05:28:26;589.70;2380.80
55008;DHT22;40902;45.116;21.296;2023-09-19T05:30:52;589.70;2380.80
55008;DHT22;40902;45.116;21.296;2023-09-19T05:33:19;589.70;2380.80
55008;DHT22;40902;45.116;21.296;2023-09-19T05:35:45;589.70;2380.80
55008;DHT22;40902;45.116;21.296;2023-09-19T05:38:13;589.70;2380.80
55008;DHT22;40902;45.116;21.296;2023-09-19T05:40:40;589.70;2380.80
55008;DHT22;40902;45.116;21.296;2023-09-19T05:43:11;589.70;2380.80
55008;DHT22;40902;45.116;21.296;2023-09-19T05:45:37;589.70;2380.80
55008;DHT22;40902;45.116;21.296;2023-09-19T05:48:13;589.70;2380.80
55008;DHT22;40902;45.116;21.296;2023-09-19T05:50:39;589.70;2380.80
55008;DHT22;40902;45.116;21.296;2023-09-19T05:53:05;589.70;2355.20
55008;DHT22;40902;45.116;21.296;2023-09-19T05:55:31;589.70;2380.80
55008;DHT22;40902;45.116;21.296;2023-09-19T05:57:57;589.70;2355.20
55008;DHT22;40902;45.116;21.296;2023-09-19T06:00:24;614.40;2380.80
55008;DHT22;40902;45.116;21.296;2023-09-19T06:02:52;614.40;2380.80
55008;DHT22;40902;45.116;21.296;2023-09-19T06:05:19;614.40;2380.80
55008;DHT22;40902;45.116;21.296;2023-09-19T06:07:45;614.40;2380.80
55008;DHT22;40902;45.116;21.296;2023-09-19T06:10:12;614.40;2380.80
55008;DHT22;40902;45.116;21.296;2023-09-19T06:12:42;614.40;2380.80
55008;DHT22;40902;45.116;21.296;2023-09-19T06:15:12;614.40;2380.80
55008;DHT22;40902;45.116;21.296;2023-09-19T06:17:46;614.40;2380.80
55008;DHT22;40902;45.116;21.296;2023-09-19T06:20:12;614.40;2380.80
55008;DHT22;40902;45.116;21.296;2023-09-19T06:22:44;614.40;2380.80
55008;DHT22;40902;45.116;21.296;2023-09-19T06:25:10;614.40;2380.80
55008;DHT22;40902;45.116;21.296;2023-09-19T06:27:40;614.40;2380.80
55008;DHT22;40902;45.116;21.296;2023-09-19T06:30:10;614.40;2380.80
55008;DHT22;40902;45.116;21.296;2023-09-19T06:32:37;614.40;2380.80
55008;DHT22;40902;45.116;21.296;2023-09-19T06:35:03;614.40;2406.40
55008;DHT22;40902;45.116;21.296;2023-09-19T06:37:29;614.40;2406.40
55008;DHT22;40902;45.116;21.296;2023-09-19T06:39:55;614.40;2406.40
55008;DHT22;40902;45.116;21.296;2023-09-19T06:42:21;614.40;2406.40
55008;DHT22;40902;45.116;21.296;2023-09-19T06:44:48;614.40;2406.40
55008;DHT22;40902;45.116;21.296;2023-09-19T06:47:14;614.40;2406.40
55008;DHT22;40902;45.116;21.296;2023-09-19T06:49:42;614.40;2406.40
55008;DHT22;40902;45.116;21.296;2023-09-19T06:52:11;614.40;2406.40
55008;DHT22;40902;45.116;21.296;2023-09-19T06:54:37;614.40;2406.40
55008;DHT22;40902;45.116;21.296;2023-09-19T06:57:03;614.40;2406.40
55008;DHT22;40902;45.116;21.296;2023-09-19T06:59:29;614.40;2406.40
55008;DHT22;40902;45.116;21.296;2023-09-19T07:01:55;614.40;2406.40
55008;DHT22;40902;45.116;21.296;2023-09-19T07:04:20;614.40;2406.40
55008;DHT22;40902;45.116;21.296;2023-09-19T07:06:49;614.40;2406.40
55008;DHT22;40902;45.116;21.296;2023-09-19T07:09:16;614.40;2406.40
55008;DHT22;40902;45.116;21.296;2023-09-19T07:11:42;614.50;2406.40
55008;DHT22;40902;45.116;21.296;2023-09-19T07:14:08;614.50;2406.40
55008;DHT22;40902;45.116;21.296;2023-09-19T07:16:37;614.50;2406.40
55008;DHT22;40902;45.116;21.296;2023-09-19T07:19:04;614.40;2406.40
55008;DHT22;40902;45.116;21.296;2023-09-19T07:21:30;614.50;2406.40
55008;DHT22;40902;45.116;21.296;2023-09-19T07:23:59;614.50;2406.40
55008;DHT22;40902;45.116;21.296;2023-09-19T07:26:26;614.50;2406.40
55008;DHT22;40902;45.116;21.296;2023-09-19T07:28:54;614.50;2406.40
55008;DHT22;40902;45.116;21.296;2023-09-19T07:31:21;614.50;2406.40
55008;DHT22;40902;45.116;21.296;2023-09-19T07:33:48;614.50;2406.40
55008;DHT22;40902;45.116;21.296;2023-09-19T07:36:14;614.50;2406.40
55008;DHT22;40902;45.116;21.296;2023-09-19T07:38:41;614.50;2406.40
55008;DHT22;40902;45.116;21.296;2023-09-19T07:41:07;614.50;2406.40
55008;DHT22;40902;45.116;21.296;2023-09-19T07:43:35;614.50;2406.40
55008;DHT22;40902;45.116;21.296;2023-09-19T07:46:07;614.50;2406.40
55008;DHT22;40902;45.116;21.296;2023-09-19T07:48:35;614.60;2406.40
55008;DHT22;40902;45.116;21.296;2023-09-19T07:51:05;614.60;2406.40
55008;DHT22;40902;45.116;21.296;2023-09-19T07:53:32;614.60;2406.40
55008;DHT22;40902;45.116;21.296;2023-09-19T07:56:07;614.60;2406.40
55008;DHT22;40902;45.116;21.296;2023-09-19T07:58:34;614.60;2406.40
55008;DHT22;40902;45.116;21.296;2023-09-19T08:01:07;614.60;2406.40
55008;DHT22;40902;45.116;21.296;2023-09-19T08:03:34;614.60;2406.40
55008;DHT22;40902;45.116;21.296;2023-09-19T08:06:00;614.60;2406.40
55008;DHT22;40902;45.116;21.296;2023-09-19T08:08:27;614.60;2406.40
55008;DHT22;40902;45.116;21.296;2023-09-19T08:10:56;614.60;2406.40
55008;DHT22;40902;45.116;21.296;2023-09-19T08:13:25;614.60;2432.00
55008;DHT22;40902;45.116;21.296;2023-09-19T08:15:52;614.60;2432.00
55008;DHT22;40902;45.116;21.296;2023-09-19T08:18:20;614.60;2406.40
55008;DHT22;40902;45.116;21.296;2023-09-19T08:20:50;614.70;2406.40
55008;DHT22;40902;45.116;21.296;2023-09-19T08:23:16;614.60;2406.40
55008;DHT22;40902;45.116;21.296;2023-09-19T08:25:43;614.70;2432.00
55008;DHT22;40902;45.116;21.296;2023-09-19T08:28:09;614.60;2432.00
55008;DHT22;40902;45.116;21.296;2023-09-19T08:30:37;614.60;2432.00
55008;DHT22;40902;45.116;21.296;2023-09-19T08:33:06;614.70;2432.00
55008;DHT22;40902;45.116;21.296;2023-09-19T08:35:33;614.70;2432.00
55008;DHT22;40902;45.116;21.296;2023-09-19T08:37:59;614.70;2432.00
55008;DHT22;40902;45.116;21.296;2023-09-19T08:40:30;614.70;2432.00
55008;DHT22;40902;45.116;21.296;2023-09-19T08:42:59;614.70;2432.00
55008;DHT22;40902;45.116;21.296;2023-09-19T08:45:26;614.70;2406.40
55008;DHT22;40902;45.116;21.296;2023-09-19T08:50:55;614.70;2406.40
55008;DHT22;40902;45.116;21.296;2023-09-19T08:55:57;614.70;2406.40
55008;DHT22;40902;45.116;21.296;2023-09-19T08:58:34;614.70;2432.00
55008;DHT22;40902;45.116;21.296;2023-09-19T09:01:01;614.70;2432.00
55008;DHT22;40902;45.116;21.296;2023-09-19T09:03:31;614.70;2432.00
55008;DHT22;40902;45.116;21.296;2023-09-19T09:05:57;614.70;2432.00
55008;DHT22;40902;45.116;21.296;2023-09-19T09:08:24;614.80;2432.00
55008;DHT22;40902;45.116;21.296;2023-09-19T09:10:50;614.80;2432.00
55008;DHT22;40902;45.116;21.296;2023-09-19T09:13:17;614.80;2432.00
55008;DHT22;40902;45.116;21.296;2023-09-19T09:15:43;614.80;2432.00
55008;DHT22;40902;45.116;21.296;2023-09-19T09:18:10;614.80;2432.00
55008;DHT22;40902;45.116;21.296;2023-09-19T09:20:36;614.80;2432.00
55008;DHT22;40902;45.116;21.296;2023-09-19T09:23:02;614.80;2432.00
55008;DHT22;40902;45.116;21.296;2023-09-19T09:25:51;614.80;2406.40
55008;DHT22;40902;45.116;21.296;2023-09-19T09:28:25;614.90;2432.00
55008;DHT22;40902;45.116;21.296;2023-09-19T09:30:52;614.90;2406.40
55008;DHT22;40902;45.116;21.296;2023-09-19T09:33:17;614.90;2406.40
55008;DHT22;40902;45.116;21.296;2023-09-19T09:35:54;614.90;2406.40
55008;DHT22;40902;45.116;21.296;2023-09-19T09:38:30;614.90;2406.40
55008;DHT22;40902;45.116;21.296;2023-09-19T09:41:09;614.90;2406.40
55008;DHT22;40902;45.116;21.296;2023-09-19T09:43:39;614.90;2406.40
55008;DHT22;40902;45.116;21.296;2023-09-19T09:46:17;614.90;2406.40
55008;DHT22;40902;45.116;21.296;2023-09-19T09:51:46;614.90;2406.40
55008;DHT22;40902;45.116;21.296;2023-09-19T09:54:24;614.90;2406.40
55008;DHT22;40902;45.116;21.296;2023-09-19T09:57:06;614.90;2406.40
55008;DHT22;40902;45.116;21.296;2023-09-19T09:59:48;615.00;2406.40
55008;DHT22;40902;45.116;21.296;2023-09-19T10:02:37;615.00;2406.40
55008;DHT22;40902;45.116;21.296;2023-09-19T10:08:11;615.00;2406.40
55008;DHT22;40902;45.116;21.296;2023-09-19T10:10:39;615.00;2406.40
55008;DHT22;40902;45.116;21.296;2023-09-19T10:13:10;615.00;2406.40
55008;DHT22;40902;45.116;21.296;2023-09-19T10:15:42;615.00;2406.40
55008;DHT22;40902;45.116;21.296;2023-09-19T10:18:20;615.00;2406.40
55008;DHT22;40902;45.116;21.296;2023-09-19T10:20:46;615.00;2406.40
55008;DHT22;40902;45.116;21.296;2023-09-19T10:23:15;615.00;2406.40
55008;DHT22;40902;45.116;21.296;2023-09-19T10:25:47;615.00;2406.40
55008;DHT22;40902;45.116;21.296;2023-09-19T10:28:14;615.00;2406.40
55008;DHT22;40902;45.116;21.296;2023-09-19T10:30:45;615.00;2406.40
55008;DHT22;40902;45.116;21.296;2023-09-19T10:33:14;615.00;2406.40
55008;DHT22;40902;45.116;21.296;2023-09-19T10:35:43;615.00;2406.40
55008;DHT22;40902;45.116;21.296;2023-09-19T10:38:11;615.00;2406.40
55008;DHT22;40902;45.116;21.296;2023-09-19T10:40:37;615.00;2406.40
55008;DHT22;40902;45.116;21.296;2023-09-19T10:43:12;615.00;2406.40
55008;DHT22;40902;45.116;21.296;2023-09-19T10:45:38;615.10;2406.40
55008;DHT22;40902;45.116;21.296;2023-09-19T10:48:06;615.10;2406.40
55008;DHT22;40902;45.116;21.296;2023-09-19T10:50:46;615.10;2406.40
55008;DHT22;40902;45.116;21.296;2023-09-19T10:53:14;615.10;2406.40
55008;DHT22;40902;45.116;21.296;2023-09-19T10:55:53;615.10;2406.40
55008;DHT22;40902;45.116;21.296;2023-09-19T10:58:31;615.10;2406.40
55008;DHT22;40902;45.116;21.296;2023-09-19T11:01:02;615.10;2406.40
55008;DHT22;40902;45.116;21.296;2023-09-19T11:03:31;615.10;2406.40
55008;DHT22;40902;45.116;21.296;2023-09-19T11:06:13;615.10;2406.40
55008;DHT22;40902;45.116;21.296;2023-09-19T11:09:04;615.10;2406.40
55008;DHT22;40902;45.116;21.296;2023-09-19T11:11:50;615.10;2406.40
55008;DHT22;40902;45.116;21.296;2023-09-19T11:30:40;615.10;2406.40
55008;DHT22;40902;45.116;21.296;2023-09-19T11:33:22;615.10;2406.40
55008;DHT22;40902;45.116;21.296;2023-09-19T11:36:06;615.10;2406.40
55008;DHT22;40902;45.116;21.296;2023-09-19T11:46:17;615.10;2406.40
55008;DHT22;40902;45.116;21.296;2023-09-19T11:48:51;615.10;2406.40
55008;DHT22;40902;45.116;21.296;2023-09-19T11:51:21;615.10;2406.40
55008;DHT22;40902;45.116;21.296;2023-09-19T11:53:52;615.10;2406.40
55008;DHT22;40902;45.116;21.296;2023-09-19T11:56:23;615.20;2406.40
55008;DHT22;40902;45.116;21.296;2023-09-19T11:58:54;615.20;2406.40
55008;DHT22;40902;45.116;21.296;2023-09-19T12:01:31;615.20;2406.40
55008;DHT22;40902;45.116;21.296;2023-09-19T12:03:59;615.20;2406.40
55008;DHT22;40902;45.116;21.296;2023-09-19T12:06:26;615.20;2406.40
55008;DHT22;40902;45.116;21.296;2023-09-19T12:08:52;615.20;2406.40
55008;DHT22;40902;45.116;21.296;2023-09-19T12:11:23;615.20;2406.40
55008;DHT22;40902;45.116;21.296;2023-09-19T12:13:50;615.20;2406.40
55008;DHT22;40902;45.116;21.296;2023-09-19T12:16:22;615.20;2406.40
55008;DHT22;40902;45.116;21.296;2023-09-19T12:18:49;615.20;2406.40
55008;DHT22;40902;45.116;21.296;2023-09-19T12:21:30;615.20;2406.40
55008;DHT22;40902;45.116;21.296;2023-09-19T12:24:06;615.20;2406.40
55008;DHT22;40902;45.116;21.296;2023-09-19T12:26:42;615.20;2406.40
55008;DHT22;40902;45.116;21.296;2023-09-19T12:29:17;615.20;2406.40
55008;DHT22;40902;45.116;21.296;2023-09-19T12:31:51;615.20;2406.40
55008;DHT22;40902;45.116;21.296;2023-09-19T12:34:22;615.20;2406.40
55008;DHT22;40902;45.116;21.296;2023-09-19T12:36:48;615.20;2406.40
55008;DHT22;40902;45.116;21.296;2023-09-19T12:39:24;615.20;2406.40
55008;DHT22;40902;45.116;21.296;2023-09-19T12:41:55;615.20;2432.00
55008;DHT22;40902;45.116;21.296;2023-09-19T12:44:22;615.20;2432.00
55008;DHT22;40902;45.116;21.296;2023-09-19T12:46:50;615.20;2432.00
55008;DHT22;40902;45.116;21.296;2023-09-19T12:49:17;615.20;2432.00
55008;DHT22;40902;45.116;21.296;2023-09-19T12:51:43;615.20;2432.00
55008;DHT22;40902;45.116;21.296;2023-09-19T12:54:09;615.20;2432.00
55008;DHT22;40902;45.116;21.296;2023-09-19T12:56:43;615.20;2432.00
55008;DHT22;40902;45.116;21.296;2023-09-19T12:59:14;615.20;2432.00
55008;DHT22;40902;45.116;21.296;2023-09-19T13:01:41;615.20;2432.00
55008;DHT22;40902;45.116;21.296;2023-09-19T13:04:19;615.20;2432.00
55008;DHT22;40902;45.116;21.296;2023-09-19T13:06:46;615.20;2432.00
55008;DHT22;40902;45.116;21.296;2023-09-19T13:09:15;615.20;2432.00
55008;DHT22;40902;45.116;21.296;2023-09-19T13:11:41;615.20;2432.00
55008;DHT22;40902;45.116;21.296;2023-09-19T13:14:19;615.20;2432.00
55008;DHT22;40902;45.116;21.296;2023-09-19T13:17:05;615.20;2432.00
55008;DHT22;40902;45.116;21.296;2023-09-19T13:19:45;615.20;2432.00
55008;DHT22;40902;45.116;21.296;2023-09-19T13:22:41;615.20;2432.00
55008;DHT22;40902;45.116;21.296;2023-09-19T13:25:15;615.20;2432.00
55008;DHT22;40902;45.116;21.296;2023-09-19T13:27:44;615.20;2432.00
55008;DHT22;40902;45.116;21.296;2023-09-19T13:30:11;615.20;2432.00
55008;DHT22;40902;45.116;21.296;2023-09-19T13:32:37;615.20;2432.00
55008;DHT22;40902;45.116;21.296;2023-09-19T13:35:05;615.20;2432.00
55008;DHT22;40902;45.116;21.296;2023-09-19T13:37:33;615.20;2432.00
55008;DHT22;40902;45.116;21.296;2023-09-19T13:40:00;615.20;2432.00
55008;DHT22;40902;45.116;21.296;2023-09-19T13:42:26;615.20;2432.00
55008;DHT22;40902;45.116;21.296;2023-09-19T13:44:55;615.20;2432.00
55008;DHT22;40902;45.116;21.296;2023-09-19T13:47:21;615.20;2432.00
55008;DHT22;40902;45.116;21.296;2023-09-19T13:49:50;615.20;2432.00
55008;DHT22;40902;45.116;21.296;2023-09-19T13:52:19;615.20;2432.00
55008;DHT22;40902;45.116;21.296;2023-09-19T13:54:45;615.20;2432.00
55008;DHT22;40902;45.116;21.296;2023-09-19T13:57:11;615.20;2432.00
55008;DHT22;40902;45.116;21.296;2023-09-19T13:59:36;615.20;2432.00
55008;DHT22;40902;45.116;21.296;2023-09-19T14:02:02;615.20;2432.00
55008;DHT22;40902;45.116;21.296;2023-09-19T14:04:32;615.20;2432.00
55008;DHT22;40902;45.116;21.296;2023-09-19T14:07:00;615.30;2432.00
55008;DHT22;40902;45.116;21.296;2023-09-19T14:09:27;615.20;2432.00
55008;DHT22;40902;45.116;21.296;2023-09-19T14:11:53;615.20;2432.00
55008;DHT22;40902;45.116;21.296;2023-09-19T14:14:19;615.20;2432.00
55008;DHT22;40902;45.116;21.296;2023-09-19T14:16:47;615.30;2432.00
55008;DHT22;40902;45.116;21.296;2023-09-19T14:19:13;615.30;2432.00
55008;DHT22;40902;45.116;21.296;2023-09-19T14:21:41;615.30;2432.00
55008;DHT22;40902;45.116;21.296;2023-09-19T14:24:08;615.30;2432.00
55008;DHT22;40902;45.116;21.296;2023-09-19T14:26:38;615.30;2432.00
55008;DHT22;40902;45.116;21.296;2023-09-19T14:29:04;615.30;2432.00
55008;DHT22;40902;45.116;21.296;2023-09-19T14:31:30;615.30;2432.00
55008;DHT22;40902;45.116;21.296;2023-09-19T14:33:57;615.30;2432.00
55008;DHT22;40902;45.116;21.296;2023-09-19T14:36:25;615.30;2432.00
55008;DHT22;40902;45.116;21.296;2023-09-19T14:38:55;615.30;2432.00
55008;DHT22;40902;45.116;21.296;2023-09-19T14:41:20;615.30;2432.00
55008;DHT22;40902;45.116;21.296;2023-09-19T14:43:47;615.30;2432.00
55008;DHT22;40902;45.116;21.296;2023-09-19T14:46:13;615.30;2432.00
55008;DHT22;40902;45.116;21.296;2023-09-19T14:48:39;615.30;2432.00
55008;DHT22;40902;45.116;21.296;2023-09-19T14:51:06;615.30;2432.00
55008;DHT22;40902;45.116;21.296;2023-09-19T14:53:34;615.30;2432.00
55008;DHT22;40902;45.116;21.296;2023-09-19T14:56:01;615.30;2432.00
55008;DHT22;40902;45.116;21.296;2023-09-19T14:58:31;615.30;2432.00
55008;DHT22;40902;45.116;21.296;2023-09-19T15:01:07;615.30;2432.00
55008;DHT22;40902;45.116;21.296;2023-09-19T15:03:34;615.30;2432.00
55008;DHT22;40902;45.116;21.296;2023-09-19T15:06:02;615.30;2432.00
55008;DHT22;40902;45.116;21.296;2023-09-19T15:08:34;615.30;2432.00
55008;DHT22;40902;45.116;21.296;2023-09-19T15:11:07;615.30;2432.00
55008;DHT22;40902;45.116;21.296;2023-09-19T15:13:33;615.30;2432.00
55008;DHT22;40902;45.116;21.296;2023-09-19T15:16:07;615.30;2432.00
55008;DHT22;40902;45.116;21.296;2023-09-19T15:18:40;615.30;2432.00
55008;DHT22;40902;45.116;21.296;2023-09-19T15:21:09;615.20;2432.00
55008;DHT22;40902;45.116;21.296;2023-09-19T15:23:36;615.20;2432.00
55008;DHT22;40902;45.116;21.296;2023-09-19T15:26:10;615.30;2432.00
55008;DHT22;40902;45.116;21.296;2023-09-19T15:28:37;615.20;2432.00
55008;DHT22;40902;45.116;21.296;2023-09-19T15:31:11;615.20;2432.00
55008;DHT22;40902;45.116;21.296;2023-09-19T15:33:37;615.30;2432.00
55008;DHT22;40902;45.116;21.296;2023-09-19T15:36:13;615.20;2432.00